createdAt,value
2023-05-22T00:00:20.667Z,5.93
2023-05-22T00:02:48.618Z,6.20
2023-05-22T00:05:15.747Z,6.18
2023-05-22T00:07:43.657Z,5.43
2023-05-22T00:10:11.097Z,5.80
2023-05-22T00:12:38.240Z,6.07
2023-05-22T00:15:06.510Z,6.22
2023-05-22T00:17:34.397Z,5.70
2023-05-22T00:20:08.317Z,5.95
2023-05-22T00:22:38.468Z,5.47
2023-05-22T00:25:06.124Z,5.93
2023-05-22T00:27:33.973Z,6.25
2023-05-22T00:30:01.570Z,7.03
2023-05-22T00:32:29.130Z,6.63
2023-05-22T00:34:56.245Z,5.60
2023-05-22T00:37:23.406Z,5.63
2023-05-22T00:39:50.738Z,5.97
2023-05-22T00:42:18.661Z,5.60
2023-05-22T00:44:46.331Z,5.95
2023-05-22T00:47:13.354Z,5.50
2023-05-22T00:49:41.094Z,5.43
2023-05-22T00:52:09.344Z,5.57
2023-05-22T00:54:36.377Z,5.50
2023-05-22T00:57:03.828Z,6.50
2023-05-22T00:59:30.893Z,5.15
2023-05-22T01:01:58.778Z,5.13
2023-05-22T01:04:26.139Z,5.38
2023-05-22T01:06:54.143Z,9.10
2023-05-22T01:09:21.181Z,7.75
2023-05-22T01:11:55.943Z,6.85
2023-05-22T01:14:31.883Z,9.02
2023-05-22T01:17:35.097Z,8.70
2023-05-22T01:20:17.094Z,7.65
2023-05-22T01:22:47.893Z,6.47
2023-05-22T01:25:19.012Z,7.38
2023-05-22T01:28:10.608Z,6.28
2023-05-22T01:30:46.607Z,6.13
2023-05-22T01:33:18.338Z,6.28
2023-05-22T01:35:46.853Z,6.20
2023-05-22T01:38:13.899Z,5.60
2023-05-22T01:40:41.221Z,5.65
2023-05-22T01:43:08.705Z,6.47
2023-05-22T01:45:35.724Z,6.22
2023-05-22T01:48:02.792Z,6.13
2023-05-22T01:50:29.980Z,6.45
2023-05-22T01:53:15.992Z,5.97
2023-05-22T01:55:45.513Z,6.32
2023-05-22T01:58:27.726Z,5.30
2023-05-22T02:00:56.585Z,5.10
2023-05-22T02:03:28.150Z,6.78
2023-05-22T02:05:56.125Z,4.63
2023-05-22T02:08:23.178Z,4.93
2023-05-22T02:10:50.285Z,4.60
2023-05-22T02:13:17.339Z,4.60
2023-05-22T02:15:48.044Z,5.55
2023-05-22T02:18:15.193Z,5.40
2023-05-22T02:20:42.108Z,4.20
2023-05-22T02:23:09.024Z,4.30
2023-05-22T02:25:36.431Z,6.47
2023-05-22T02:28:03.468Z,7.00
2023-05-22T02:30:30.508Z,6.43
2023-05-22T02:32:58.751Z,5.68
2023-05-22T02:35:25.954Z,6.80
2023-05-22T02:37:52.851Z,5.22
2023-05-22T02:40:19.928Z,4.68
2023-05-22T02:42:46.906Z,4.95
2023-05-22T02:45:14.110Z,4.80
2023-05-22T02:47:41.175Z,5.40
2023-05-22T02:50:08.443Z,4.57
2023-05-22T02:52:35.418Z,4.68
2023-05-22T02:55:04.704Z,6.13
2023-05-22T02:59:59.538Z,5.35
2023-05-22T03:02:28.867Z,4.97
2023-05-22T03:04:59.240Z,4.85
2023-05-22T03:07:29.987Z,4.28
2023-05-22T03:09:57.115Z,3.85
2023-05-22T03:12:24.168Z,4.07
2023-05-22T03:14:51.271Z,4.90
2023-05-22T03:17:18.274Z,4.85
2023-05-22T03:19:45.168Z,5.03
2023-05-22T03:22:12.211Z,5.10
2023-05-22T03:24:39.292Z,4.97
2023-05-22T03:27:06.338Z,5.00
2023-05-22T03:29:33.371Z,4.80
2023-05-22T03:32:00.752Z,5.10
2023-05-22T03:34:28.013Z,4.43
2023-05-22T03:36:55.095Z,4.88
2023-05-22T03:39:22.074Z,4.68
2023-05-22T03:41:49.045Z,4.55
2023-05-22T03:44:16.289Z,5.10
2023-05-22T03:46:43.255Z,5.00
2023-05-22T03:49:10.104Z,5.15
2023-05-22T03:51:37.271Z,5.18
2023-05-22T03:54:04.442Z,4.18
2023-05-22T03:56:31.574Z,3.97
2023-05-22T03:58:58.525Z,3.85
2023-05-22T04:01:25.530Z,4.30
2023-05-22T04:03:52.700Z,3.88
2023-05-22T04:06:23.648Z,4.03
2023-05-22T04:08:50.793Z,4.28
2023-05-22T04:11:18.830Z,5.35
2023-05-22T04:13:46.460Z,5.50
2023-05-22T04:16:13.630Z,5.72
2023-05-22T04:18:40.593Z,5.68
2023-05-22T04:21:10.018Z,5.50
2023-05-22T04:23:38.980Z,4.78
2023-05-22T04:26:09.000Z,4.65
2023-05-22T04:28:36.020Z,4.07
2023-05-22T04:31:06.806Z,4.10
2023-05-22T04:33:34.921Z,3.88
2023-05-22T04:36:03.004Z,4.10
2023-05-22T04:38:30.119Z,3.83
2023-05-22T04:40:57.347Z,4.00
2023-05-22T04:43:26.983Z,3.90
2023-05-22T04:45:54.999Z,4.25
2023-05-22T04:48:22.752Z,4.40
2023-05-22T04:50:50.362Z,4.07
2023-05-22T04:53:17.238Z,4.57
2023-05-22T04:55:44.796Z,4.22
2023-05-22T04:58:12.442Z,4.30
2023-05-22T05:00:39.441Z,4.10
2023-05-22T05:03:08.674Z,4.40
2023-05-22T05:05:35.823Z,4.03
2023-05-22T05:08:02.817Z,3.58
2023-05-22T05:10:29.809Z,3.60
2023-05-22T05:12:56.872Z,3.45
2023-05-22T05:15:24.211Z,3.67
2023-05-22T05:17:51.770Z,3.50
2023-05-22T05:20:18.940Z,3.83
2023-05-22T05:22:46.717Z,3.90
2023-05-22T05:25:13.632Z,4.10
2023-05-22T05:27:40.682Z,3.97
2023-05-22T05:30:09.027Z,3.33
2023-05-22T05:32:36.428Z,3.70
2023-05-22T05:35:03.786Z,3.50
2023-05-22T05:37:30.751Z,3.50
2023-05-22T05:39:57.942Z,3.50
2023-05-22T05:42:24.999Z,3.60
2023-05-22T05:44:51.868Z,3.42
2023-05-22T05:47:19.219Z,3.45
2023-05-22T05:49:46.077Z,3.90
2023-05-22T05:52:13.161Z,3.88
2023-05-22T05:54:46.706Z,4.10
2023-05-22T05:57:15.180Z,3.67
2023-05-22T05:59:42.350Z,3.20
2023-05-22T06:02:09.957Z,4.00
2023-05-22T06:04:37.054Z,3.55
2023-05-22T06:07:04.040Z,4.10
2023-05-22T06:09:30.955Z,4.15
2023-05-22T06:11:58.146Z,4.60
2023-05-22T06:14:25.272Z,4.10
2023-05-22T06:16:52.366Z,4.20
2023-05-22T06:19:22.586Z,4.38
2023-05-22T06:21:51.476Z,4.32
2023-05-22T06:24:19.542Z,4.00
2023-05-22T06:26:47.053Z,4.13
2023-05-22T06:29:14.234Z,4.93
2023-05-22T06:31:41.263Z,4.28
2023-05-22T06:34:10.800Z,4.50
2023-05-22T06:36:37.777Z,4.10
2023-05-22T06:39:06.178Z,4.07
2023-05-22T06:42:17.820Z,4.47
2023-05-22T06:44:44.761Z,4.50
2023-05-22T06:47:11.840Z,4.38
2023-05-22T06:49:38.778Z,4.03
2023-05-22T06:52:05.874Z,4.78
2023-05-22T06:54:32.822Z,4.13
2023-05-22T06:56:59.712Z,3.90
2023-05-22T06:59:26.707Z,4.70
2023-05-22T07:02:00.220Z,4.23
2023-05-22T07:04:27.131Z,4.43
2023-05-22T07:06:54.073Z,4.60
2023-05-22T07:09:21.108Z,3.88
2023-05-22T07:11:48.087Z,3.87
2023-05-22T07:14:15.171Z,3.75
2023-05-22T07:16:42.230Z,4.07
2023-05-22T07:19:11.096Z,3.90
2023-05-22T07:21:38.191Z,3.60
2023-05-22T07:24:08.883Z,4.67
2023-05-22T07:26:36.821Z,4.40
2023-05-22T07:31:32.074Z,4.55
2023-05-22T07:33:59.209Z,5.10
2023-05-22T07:36:29.112Z,4.55
2023-05-22T07:38:56.195Z,5.35
2023-05-22T07:41:24.302Z,5.30
2023-05-22T07:46:18.150Z,4.30
2023-05-22T07:48:45.106Z,4.95
2023-05-22T07:51:13.767Z,3.90
2023-05-22T07:53:40.988Z,4.47
2023-05-22T07:56:07.984Z,4.30
2023-05-22T08:01:29.955Z,4.88
2023-05-22T08:03:57.141Z,4.20
2023-05-22T08:06:24.653Z,4.13
2023-05-22T08:08:53.349Z,4.20
2023-05-22T08:11:20.344Z,3.80
2023-05-22T08:13:47.628Z,4.30
2023-05-22T08:16:14.485Z,4.20
2023-05-22T08:18:41.370Z,4.28
2023-05-22T08:21:08.306Z,4.20
2023-05-22T08:23:36.971Z,3.80
2023-05-22T08:26:03.979Z,3.97
2023-05-22T08:28:31.030Z,3.70
2023-05-22T08:30:58.211Z,3.60
2023-05-22T08:33:25.678Z,4.13
2023-05-22T08:35:52.825Z,3.60
2023-05-22T08:38:19.715Z,3.60
2023-05-22T08:40:48.963Z,3.83
2023-05-22T08:43:16.326Z,3.90
2023-05-22T08:45:44.476Z,3.53
2023-05-22T08:50:42.779Z,3.45
2023-05-22T08:53:13.544Z,4.18
2023-05-22T08:55:40.840Z,4.00
2023-05-22T08:58:07.788Z,3.63
2023-05-22T09:00:34.882Z,4.35
2023-05-22T09:03:03.024Z,3.70
2023-05-22T09:05:30.754Z,3.35
2023-05-22T09:08:08.308Z,3.50
2023-05-22T09:10:43.670Z,3.63
2023-05-22T09:13:12.016Z,3.42
2023-05-22T09:15:38.941Z,3.72
2023-05-22T09:18:07.758Z,3.70
2023-05-22T09:20:41.869Z,3.72
2023-05-22T09:23:18.255Z,3.45
2023-05-22T09:25:45.808Z,3.70
2023-05-22T09:28:13.393Z,3.78
2023-05-22T09:30:42.646Z,3.50
2023-05-22T09:33:10.386Z,4.18
2023-05-22T09:35:39.271Z,3.97
2023-05-22T09:38:06.854Z,4.20
2023-05-22T09:40:35.256Z,4.53
2023-05-22T09:43:04.415Z,4.13
2023-05-22T09:45:31.410Z,3.85
2023-05-22T09:47:58.702Z,3.88
2023-05-22T09:50:25.963Z,4.03
2023-05-22T09:52:53.596Z,4.07
2023-05-22T09:55:21.970Z,4.10
2023-05-22T09:57:50.723Z,3.63
2023-05-22T10:00:19.800Z,4.07
2023-05-22T10:02:48.761Z,3.90
2023-05-22T10:05:23.570Z,3.97
2023-05-22T10:07:52.242Z,4.15
2023-05-22T10:10:22.061Z,4.63
2023-05-22T10:12:53.090Z,4.30
2023-05-22T10:15:20.221Z,4.15
2023-05-22T10:17:47.412Z,4.20
2023-05-22T10:20:14.912Z,4.32
2023-05-22T10:22:42.000Z,3.70
2023-05-22T10:25:10.729Z,4.38
2023-05-22T10:27:38.826Z,4.70
2023-05-22T10:30:24.581Z,4.05
2023-05-22T10:33:21.893Z,4.50
2023-05-22T10:36:12.464Z,4.60
2023-05-22T10:38:54.464Z,4.60
2023-05-22T10:41:24.920Z,4.50
2023-05-22T10:43:52.035Z,4.40
2023-05-22T10:46:19.176Z,4.95
2023-05-22T10:48:47.621Z,4.60
2023-05-22T10:51:15.732Z,4.93
2023-05-22T10:53:46.157Z,5.53
2023-05-22T10:56:14.656Z,4.75
2023-05-22T10:58:44.110Z,4.63
2023-05-22T11:01:15.861Z,5.00
2023-05-22T11:03:59.416Z,4.63
2023-05-22T11:06:35.712Z,4.97
2023-05-22T11:09:31.465Z,5.00
2023-05-22T11:12:28.912Z,5.18
2023-05-22T11:15:06.181Z,4.80
2023-05-22T11:17:34.290Z,5.13
2023-05-22T11:20:21.522Z,5.00
2023-05-22T11:22:56.641Z,5.07
2023-05-22T11:25:25.469Z,5.10
2023-05-22T11:27:54.348Z,5.00
2023-05-22T11:30:21.341Z,5.10
2023-05-22T11:32:48.366Z,5.22
2023-05-22T11:35:19.773Z,4.90
2023-05-22T11:37:47.244Z,5.18
2023-05-22T11:40:16.323Z,5.00
2023-05-22T11:42:43.340Z,5.20
2023-05-22T11:45:10.960Z,5.10
2023-05-22T11:47:38.419Z,4.90
2023-05-22T11:50:07.265Z,4.83
2023-05-22T11:52:35.360Z,5.00
2023-05-22T11:55:05.864Z,4.70
2023-05-22T11:57:33.008Z,4.78
2023-05-22T11:59:59.958Z,4.40
2023-05-22T12:02:27.168Z,4.28
2023-05-22T12:04:55.993Z,4.40
2023-05-22T12:07:23.137Z,4.30
2023-05-22T12:09:50.059Z,4.40
2023-05-22T12:12:16.990Z,4.50
2023-05-22T12:14:47.077Z,4.70
2023-05-22T12:17:14.331Z,4.25
2023-05-22T12:19:41.588Z,4.10
2023-05-22T12:22:14.940Z,4.22
2023-05-22T12:24:42.718Z,4.03
2023-05-22T12:27:13.624Z,4.10
2023-05-22T12:29:41.041Z,4.20
2023-05-22T12:32:09.837Z,4.05
2023-05-22T12:34:42.543Z,3.90
2023-05-22T12:37:20.248Z,4.40
2023-05-22T12:40:00.716Z,4.10
2023-05-22T12:42:28.533Z,3.92
2023-05-22T12:45:00.834Z,4.05
2023-05-22T12:47:28.175Z,3.92
2023-05-22T12:49:55.365Z,4.03
2023-05-22T12:52:22.433Z,4.03
2023-05-22T12:54:50.812Z,4.20
2023-05-22T12:57:17.971Z,3.90
2023-05-22T12:59:45.106Z,4.13
2023-05-22T13:02:12.617Z,4.63
2023-05-22T13:04:39.686Z,4.43
2023-05-22T13:07:06.657Z,4.10
2023-05-22T13:09:33.760Z,4.32
2023-05-22T13:12:02.062Z,4.10
2023-05-22T13:14:29.188Z,4.38
2023-05-22T13:16:56.256Z,4.43
2023-05-22T13:19:23.270Z,4.10
2023-05-22T13:21:50.484Z,4.10
2023-05-22T13:24:17.575Z,4.00
2023-05-22T13:26:44.704Z,4.20
2023-05-22T13:29:11.934Z,4.25
2023-05-22T13:31:39.242Z,4.18
2023-05-22T13:34:06.251Z,4.28
2023-05-22T13:36:34.455Z,4.28
2023-05-22T13:41:28.505Z,4.80
2023-05-22T13:43:56.640Z,4.68
2023-05-22T13:48:50.638Z,5.10
2023-05-22T13:51:17.619Z,4.68
2023-05-22T13:53:44.706Z,5.10
2023-05-22T13:56:11.626Z,4.93
2023-05-22T13:58:38.544Z,4.80
2023-05-22T14:01:05.635Z,4.70
2023-05-22T14:03:32.924Z,5.05
2023-05-22T14:05:59.867Z,5.20
2023-05-22T14:08:26.973Z,5.03
2023-05-22T14:10:54.422Z,4.50
2023-05-22T14:13:21.559Z,4.80
2023-05-22T14:15:48.660Z,4.60
2023-05-22T14:18:16.977Z,4.40
2023-05-22T14:20:45.013Z,4.45
2023-05-22T14:23:15.571Z,4.20
2023-05-22T14:25:45.730Z,4.95
2023-05-22T14:28:12.714Z,4.60
2023-05-22T14:30:40.029Z,4.78
2023-05-22T14:33:07.489Z,4.70
2023-05-22T14:35:34.740Z,4.47
2023-05-22T14:38:01.892Z,4.28
2023-05-22T14:40:29.052Z,4.78
2023-05-22T14:42:56.258Z,4.13
2023-05-22T14:45:24.039Z,4.53
2023-05-22T14:47:51.334Z,4.57
2023-05-22T14:50:20.604Z,4.45
2023-05-22T14:52:49.612Z,4.47
2023-05-22T14:55:17.148Z,4.30
2023-05-22T14:57:44.294Z,4.30
2023-05-22T15:00:12.711Z,4.13
2023-05-22T15:02:40.454Z,4.13
2023-05-22T15:05:08.088Z,4.18
2023-05-22T15:07:44.004Z,4.20
2023-05-22T15:10:12.441Z,4.00
2023-05-22T15:12:39.414Z,3.88
2023-05-22T15:15:07.108Z,3.85
2023-05-22T15:17:34.050Z,4.13
2023-05-22T15:20:01.238Z,4.25
2023-05-22T15:22:28.304Z,4.20
2023-05-22T15:25:05.905Z,4.20
2023-05-22T15:27:35.532Z,4.28
2023-05-22T15:30:04.332Z,4.25
2023-05-22T15:32:34.747Z,4.15
2023-05-22T15:35:01.760Z,3.80
2023-05-22T15:37:32.446Z,4.20
2023-05-22T15:40:01.915Z,3.95
2023-05-22T15:42:29.883Z,3.97
2023-05-22T15:44:58.484Z,4.05
2023-05-22T15:47:25.588Z,4.43
2023-05-22T15:49:53.055Z,3.88
2023-05-22T15:52:22.947Z,4.03
2023-05-22T15:54:50.014Z,3.83
2023-05-22T15:57:16.969Z,3.70
2023-05-22T15:59:43.876Z,3.80
2023-05-22T16:02:10.858Z,3.92
2023-05-22T16:04:37.854Z,3.85
2023-05-22T16:07:04.942Z,4.00
2023-05-22T16:09:32.794Z,3.80
2023-05-22T16:12:00.154Z,3.78
2023-05-22T16:14:26.993Z,3.70
2023-05-22T16:16:53.898Z,3.70
2023-05-22T16:19:20.965Z,4.18
2023-05-22T16:21:48.218Z,4.28
2023-05-22T16:24:15.222Z,3.90
2023-05-22T16:26:42.399Z,3.72
2023-05-22T16:29:09.634Z,4.07
2023-05-22T16:31:36.678Z,4.10
2023-05-22T16:34:04.649Z,4.10
2023-05-22T16:36:31.768Z,3.80
2023-05-22T16:38:58.781Z,3.75
2023-05-22T16:41:27.158Z,3.67
2023-05-22T16:43:54.205Z,3.80
2023-05-22T16:46:21.806Z,4.10
2023-05-22T16:48:48.944Z,4.10
2023-05-22T16:51:16.028Z,3.97
2023-05-22T16:53:43.262Z,3.95
2023-05-22T16:56:10.199Z,4.13
2023-05-22T16:58:38.455Z,3.88
2023-05-22T17:01:07.173Z,3.88
2023-05-22T17:03:34.410Z,4.15
2023-05-22T17:06:03.359Z,4.50
2023-05-22T17:08:30.689Z,4.22
2023-05-22T17:10:57.711Z,4.28
2023-05-22T17:13:24.761Z,4.28
2023-05-22T17:15:51.961Z,4.78
2023-05-22T17:18:20.222Z,4.15
2023-05-22T17:20:51.002Z,4.43
2023-05-22T17:23:18.689Z,4.20
2023-05-22T17:25:49.077Z,4.28
2023-05-22T17:28:16.719Z,4.35
2023-05-22T17:30:45.585Z,4.50
2023-05-22T17:33:13.163Z,4.68
2023-05-22T17:35:40.351Z,4.50
2023-05-22T17:38:08.796Z,4.57
2023-05-22T17:43:14.027Z,4.07
2023-05-22T17:45:42.036Z,4.97
2023-05-22T17:48:09.406Z,4.93
2023-05-22T17:50:36.675Z,5.03
2023-05-22T17:53:03.703Z,5.10
2023-05-22T17:55:30.795Z,4.50
2023-05-22T17:57:59.072Z,5.10
2023-05-22T18:00:26.275Z,5.25
2023-05-22T18:02:53.490Z,5.18
2023-05-22T18:05:20.678Z,4.78
2023-05-22T18:07:48.107Z,5.10
2023-05-22T18:10:15.200Z,5.53
2023-05-22T18:12:42.357Z,5.40
2023-05-22T18:15:10.965Z,5.20
2023-05-22T18:17:38.708Z,5.47
2023-05-22T18:20:08.483Z,5.07
2023-05-22T18:22:38.571Z,5.28
2023-05-22T18:25:07.561Z,4.97
2023-05-22T18:27:35.610Z,5.47
2023-05-22T18:30:03.230Z,5.20
2023-05-22T18:32:31.267Z,4.83
2023-05-22T18:35:03.863Z,5.35
2023-05-22T18:37:31.193Z,5.50
2023-05-22T18:39:58.344Z,5.60
2023-05-22T18:42:25.451Z,5.70
2023-05-22T18:44:53.140Z,6.05
2023-05-22T18:47:20.072Z,6.60
2023-05-22T18:49:47.190Z,6.75
2023-05-22T18:52:14.258Z,7.10
2023-05-22T18:54:41.269Z,7.13
2023-05-22T18:57:08.261Z,7.22
2023-05-22T18:59:35.204Z,7.22
2023-05-22T19:02:02.346Z,8.40
2023-05-22T19:04:29.442Z,7.55
2023-05-22T19:06:56.705Z,7.78
2023-05-22T19:09:25.066Z,7.38
2023-05-22T19:11:52.112Z,7.82
2023-05-22T19:14:19.301Z,7.75
2023-05-22T19:16:46.317Z,7.65
2023-05-22T19:19:14.946Z,7.45
2023-05-22T19:21:42.013Z,7.82
2023-05-22T19:24:09.109Z,8.68
2023-05-22T19:26:36.139Z,8.35
2023-05-22T19:29:03.290Z,7.78
2023-05-22T19:31:30.272Z,8.07
2023-05-22T19:33:57.458Z,8.48
2023-05-22T19:36:24.484Z,8.85
2023-05-22T19:38:53.512Z,8.52
2023-05-22T19:41:22.071Z,8.43
2023-05-22T19:43:49.233Z,9.10
2023-05-22T19:46:16.193Z,8.73
2023-05-22T19:48:43.433Z,7.95
2023-05-22T19:51:10.663Z,6.93
2023-05-22T19:53:37.719Z,6.63
2023-05-22T19:56:04.875Z,6.68
2023-05-22T19:58:31.983Z,6.80
2023-05-22T20:00:58.985Z,5.90
2023-05-22T20:03:26.898Z,6.05
2023-05-22T20:05:54.129Z,6.07
2023-05-22T20:08:25.808Z,6.00
2023-05-22T20:10:53.103Z,6.35
2023-05-22T20:13:19.962Z,6.90
2023-05-22T20:15:52.206Z,6.85
2023-05-22T20:18:21.098Z,7.10
2023-05-22T20:23:15.068Z,6.15
2023-05-22T20:25:42.267Z,5.90
2023-05-22T20:28:09.672Z,6.00
2023-05-22T20:30:36.856Z,5.63
2023-05-22T20:33:04.078Z,5.82
2023-05-22T20:35:31.520Z,6.07
2023-05-22T20:38:03.470Z,5.75
2023-05-22T20:40:32.600Z,5.57
2023-05-22T20:43:03.048Z,5.35
2023-05-22T20:45:30.995Z,5.55
2023-05-22T20:47:58.143Z,6.13
2023-05-22T20:50:25.204Z,6.45
2023-05-22T20:52:52.183Z,6.25
2023-05-22T20:55:19.098Z,6.45
2023-05-22T20:57:46.054Z,6.07
2023-05-22T21:00:14.226Z,5.78
2023-05-22T21:02:41.630Z,6.20
2023-05-22T21:05:09.123Z,6.70
2023-05-22T21:07:36.210Z,6.18
2023-05-22T21:10:03.503Z,6.35
2023-05-22T21:12:30.530Z,6.63
2023-05-22T21:14:57.589Z,6.55
2023-05-22T21:17:26.116Z,6.50
2023-05-22T21:19:53.618Z,6.80
2023-05-22T21:22:20.882Z,6.35
2023-05-22T21:24:48.311Z,6.25
2023-05-22T21:27:15.319Z,6.43
2023-05-22T21:29:42.281Z,6.40
2023-05-22T21:32:09.306Z,6.63
2023-05-22T21:34:36.386Z,6.25
2023-05-22T21:37:03.340Z,6.30
2023-05-22T21:39:30.705Z,5.60
2023-05-22T21:41:58.226Z,5.40
2023-05-22T21:44:25.528Z,6.20
2023-05-22T21:46:52.697Z,6.30
2023-05-22T21:49:19.875Z,6.10
2023-05-22T21:51:47.048Z,6.13
2023-05-22T21:54:14.118Z,5.97
2023-05-22T21:56:40.996Z,5.97
2023-05-22T21:59:08.054Z,5.82
2023-05-22T22:01:35.156Z,5.55
2023-05-22T22:04:02.280Z,5.90
2023-05-22T22:06:29.990Z,6.32
2023-05-22T22:09:00.049Z,6.38
2023-05-22T22:11:27.735Z,6.70
2023-05-22T22:13:55.318Z,6.20
2023-05-22T22:16:22.461Z,6.20
2023-05-22T22:18:50.546Z,5.68
2023-05-22T22:21:17.598Z,5.28
2023-05-22T22:23:44.514Z,5.47
2023-05-22T22:26:13.182Z,5.78
2023-05-22T22:28:40.211Z,5.22
2023-05-22T22:31:07.230Z,5.30
2023-05-22T22:33:34.274Z,5.38
2023-05-22T22:36:01.919Z,5.38
2023-05-22T22:38:29.288Z,5.30
2023-05-22T22:40:56.348Z,5.57
2023-05-22T22:43:23.503Z,5.47
2023-05-22T22:45:50.620Z,5.60
2023-05-22T22:48:17.782Z,5.18
2023-05-22T22:50:47.068Z,5.25
2023-05-22T22:53:14.072Z,4.93
2023-05-22T22:55:41.690Z,5.28
2023-05-22T22:58:10.067Z,5.13
2023-05-22T23:00:37.112Z,5.07
2023-05-22T23:03:04.146Z,5.40
2023-05-22T23:05:31.349Z,5.25
2023-05-22T23:08:02.413Z,5.50
2023-05-22T23:10:29.378Z,5.10
2023-05-22T23:12:57.514Z,5.32
2023-05-22T23:15:24.698Z,4.97
2023-05-22T23:17:52.129Z,5.07
2023-05-22T23:20:19.286Z,5.20
2023-05-22T23:22:46.658Z,6.00
2023-05-22T23:25:13.707Z,5.68
2023-05-22T23:27:40.743Z,5.75
2023-05-22T23:30:08.336Z,5.72
2023-05-22T23:32:35.337Z,5.90
2023-05-22T23:35:02.210Z,6.00
2023-05-22T23:37:29.289Z,5.63
2023-05-22T23:39:59.082Z,5.43
2023-05-22T23:42:26.105Z,5.47
2023-05-22T23:44:53.080Z,5.55
2023-05-22T23:47:20.235Z,5.18
2023-05-22T23:49:47.415Z,5.30
2023-05-22T23:52:14.411Z,5.93
2023-05-22T23:54:41.719Z,5.80
2023-05-22T23:57:09.044Z,5.88
2023-05-22T23:59:36.190Z,5.80
